sensor_id;sensor_type;location;lat;lon;timestamp;temperature;humidity
19164;DHT22;9714;51.208;4.242;2023-02-21T00:02:30;9.90;99.90
19164;DHT22;9714;51.208;4.242;2023-02-21T00:05:15;9.90;99.90
19164;DHT22;9714;51.208;4.242;2023-02-21T00:08:02;9.80;99.90
19164;DHT22;9714;51.208;4.242;2023-02-21T00:10:46;10.00;99.90
19164;DHT22;9714;51.208;4.242;2023-02-21T00:13:35;9.80;99.90
19164;DHT22;9714;51.208;4.242;2023-02-21T00:16:21;9.80;99.90
19164;DHT22;9714;51.208;4.242;2023-02-21T00:19:06;9.70;99.90
19164;DHT22;9714;51.208;4.242;2023-02-21T00:21:51;9.70;99.90
19164;DHT22;9714;51.208;4.242;2023-02-21T00:24:37;9.60;99.90
19164;DHT22;9714;51.208;4.242;2023-02-21T00:27:23;9.90;99.90
19164;DHT22;9714;51.208;4.242;2023-02-21T00:30:09;9.70;99.90
19164;DHT22;9714;51.208;4.242;2023-02-21T00:32:54;9.90;99.90
19164;DHT22;9714;51.208;4.242;2023-02-21T00:35:38;9.80;99.90
19164;DHT22;9714;51.208;4.242;2023-02-21T00:38:23;9.80;99.90
19164;DHT22;9714;51.208;4.242;2023-02-21T00:41:09;9.60;99.90
19164;DHT22;9714;51.208;4.242;2023-02-21T00:43:53;9.50;99.90
19164;DHT22;9714;51.208;4.242;2023-02-21T00:46:37;9.40;99.90
19164;DHT22;9714;51.208;4.242;2023-02-21T00:49:22;9.50;99.90
19164;DHT22;9714;51.208;4.242;2023-02-21T00:52:07;9.50;99.90
19164;DHT22;9714;51.208;4.242;2023-02-21T00:54:51;9.60;99.90
19164;DHT22;9714;51.208;4.242;2023-02-21T00:57:37;9.60;99.90
19164;DHT22;9714;51.208;4.242;2023-02-21T01:00:23;9.60;99.90
19164;DHT22;9714;51.208;4.242;2023-02-21T01:03:08;9.80;99.90
19164;DHT22;9714;51.208;4.242;2023-02-21T01:05:53;9.80;99.90
19164;DHT22;9714;51.208;4.242;2023-02-21T01:08:40;9.80;99.90
19164;DHT22;9714;51.208;4.242;2023-02-21T01:11:25;9.70;99.90
19164;DHT22;9714;51.208;4.242;2023-02-21T01:14:11;9.70;99.90
19164;DHT22;9714;51.208;4.242;2023-02-21T01:16:58;9.70;99.90
19164;DHT22;9714;51.208;4.242;2023-02-21T01:19:43;9.70;99.90
19164;DHT22;9714;51.208;4.242;2023-02-21T01:22:29;9.70;99.90
19164;DHT22;9714;51.208;4.242;2023-02-21T01:25:14;9.80;99.90
19164;DHT22;9714;51.208;4.242;2023-02-21T01:28:00;9.80;99.90
19164;DHT22;9714;51.208;4.242;2023-02-21T01:30:48;9.80;99.90
19164;DHT22;9714;51.208;4.242;2023-02-21T01:33:37;9.80;99.90
19164;DHT22;9714;51.208;4.242;2023-02-21T01:36:22;9.60;99.90
19164;DHT22;9714;51.208;4.242;2023-02-21T01:39:07;9.70;99.90
19164;DHT22;9714;51.208;4.242;2023-02-21T01:41:52;9.70;99.90
19164;DHT22;9714;51.208;4.242;2023-02-21T01:44:38;9.70;99.90
19164;DHT22;9714;51.208;4.242;2023-02-21T01:47:26;9.80;99.90
19164;DHT22;9714;51.208;4.242;2023-02-21T01:50:15;10.00;99.90
19164;DHT22;9714;51.208;4.242;2023-02-21T01:53:06;9.80;99.90
19164;DHT22;9714;51.208;4.242;2023-02-21T01:55:51;9.80;99.90
19164;DHT22;9714;51.208;4.242;2023-02-21T01:58:38;9.80;99.90
19164;DHT22;9714;51.208;4.242;2023-02-21T02:01:32;9.60;99.90
19164;DHT22;9714;51.208;4.242;2023-02-21T02:04:19;9.50;99.90
19164;DHT22;9714;51.208;4.242;2023-02-21T02:07:03;9.50;99.90
19164;DHT22;9714;51.208;4.242;2023-02-21T02:09:47;9.60;99.90
19164;DHT22;9714;51.208;4.242;2023-02-21T02:15:52;9.60;99.90
19164;DHT22;9714;51.208;4.242;2023-02-21T02:18:44;9.70;99.90
19164;DHT22;9714;51.208;4.242;2023-02-21T02:27:44;9.70;99.90
19164;DHT22;9714;51.208;4.242;2023-02-21T02:30:51;9.60;99.90
19164;DHT22;9714;51.208;4.242;2023-02-21T02:36:42;9.50;99.90
19164;DHT22;9714;51.208;4.242;2023-02-21T02:39:17;9.40;99.90
19164;DHT22;9714;51.208;4.242;2023-02-21T02:41:51;9.20;99.90
19164;DHT22;9714;51.208;4.242;2023-02-21T02:44:25;9.30;99.90
19164;DHT22;9714;51.208;4.242;2023-02-21T02:46:57;9.50;99.90
19164;DHT22;9714;51.208;4.242;2023-02-21T02:49:28;9.60;99.90
19164;DHT22;9714;51.208;4.242;2023-02-21T02:52:07;9.40;99.90
19164;DHT22;9714;51.208;4.242;2023-02-21T02:54:35;9.30;99.90
19164;DHT22;9714;51.208;4.242;2023-02-21T02:57:05;9.50;99.90
19164;DHT22;9714;51.208;4.242;2023-02-21T02:59:39;9.40;99.90
19164;DHT22;9714;51.208;4.242;2023-02-21T03:02:36;9.30;99.90
19164;DHT22;9714;51.208;4.242;2023-02-21T03:05:26;9.30;99.90
19164;DHT22;9714;51.208;4.242;2023-02-21T03:08:25;9.30;99.90
19164;DHT22;9714;51.208;4.242;2023-02-21T03:11:00;9.40;99.90
19164;DHT22;9714;51.208;4.242;2023-02-21T03:13:35;9.60;99.90
19164;DHT22;9714;51.208;4.242;2023-02-21T03:16:08;9.50;99.90
19164;DHT22;9714;51.208;4.242;2023-02-21T03:18:42;9.50;99.90
19164;DHT22;9714;51.208;4.242;2023-02-21T03:21:16;9.40;99.90
19164;DHT22;9714;51.208;4.242;2023-02-21T03:23:49;9.30;99.90
19164;DHT22;9714;51.208;4.242;2023-02-21T03:26:17;9.20;99.90
19164;DHT22;9714;51.208;4.242;2023-02-21T03:28:45;9.30;99.90
19164;DHT22;9714;51.208;4.242;2023-02-21T03:31:16;9.40;99.90
19164;DHT22;9714;51.208;4.242;2023-02-21T03:33:45;9.30;99.90
19164;DHT22;9714;51.208;4.242;2023-02-21T03:36:14;9.40;99.90
19164;DHT22;9714;51.208;4.242;2023-02-21T03:38:41;9.60;99.90
19164;DHT22;9714;51.208;4.242;2023-02-21T03:41:11;9.50;99.90
19164;DHT22;9714;51.208;4.242;2023-02-21T03:43:38;9.70;99.90
19164;DHT22;9714;51.208;4.242;2023-02-21T03:46:05;9.50;99.90
19164;DHT22;9714;51.208;4.242;2023-02-21T03:48:35;9.50;99.90
19164;DHT22;9714;51.208;4.242;2023-02-21T03:51:02;9.50;99.90
19164;DHT22;9714;51.208;4.242;2023-02-21T03:53:29;9.40;99.90
19164;DHT22;9714;51.208;4.242;2023-02-21T03:55:57;9.50;99.90
19164;DHT22;9714;51.208;4.242;2023-02-21T03:58:31;9.50;99.90
19164;DHT22;9714;51.208;4.242;2023-02-21T04:01:04;9.50;99.90
19164;DHT22;9714;51.208;4.242;2023-02-21T04:03:32;9.60;99.90
19164;DHT22;9714;51.208;4.242;2023-02-21T04:05:59;9.60;99.90
19164;DHT22;9714;51.208;4.242;2023-02-21T04:08:29;9.50;99.90
19164;DHT22;9714;51.208;4.242;2023-02-21T04:10:56;9.40;99.90
19164;DHT22;9714;51.208;4.242;2023-02-21T04:13:23;9.50;99.90
19164;DHT22;9714;51.208;4.242;2023-02-21T04:15:52;9.50;99.90
19164;DHT22;9714;51.208;4.242;2023-02-21T04:18:19;9.30;99.90
19164;DHT22;9714;51.208;4.242;2023-02-21T04:20:49;9.30;99.90
19164;DHT22;9714;51.208;4.242;2023-02-21T04:23:17;9.50;99.90
19164;DHT22;9714;51.208;4.242;2023-02-21T04:25:44;9.40;99.90
19164;DHT22;9714;51.208;4.242;2023-02-21T04:28:11;9.50;99.90
19164;DHT22;9714;51.208;4.242;2023-02-21T04:30:38;9.40;99.90
19164;DHT22;9714;51.208;4.242;2023-02-21T04:33:07;9.50;99.90
19164;DHT22;9714;51.208;4.242;2023-02-21T04:35:37;9.50;99.90
19164;DHT22;9714;51.208;4.242;2023-02-21T04:38:03;9.40;99.90
19164;DHT22;9714;51.208;4.242;2023-02-21T04:40:31;9.30;99.90
19164;DHT22;9714;51.208;4.242;2023-02-21T04:42:57;9.10;99.90
19164;DHT22;9714;51.208;4.242;2023-02-21T04:45:24;9.20;99.90
19164;DHT22;9714;51.208;4.242;2023-02-21T04:47:51;9.50;99.90
19164;DHT22;9714;51.208;4.242;2023-02-21T04:50:22;9.50;99.90
19164;DHT22;9714;51.208;4.242;2023-02-21T04:52:55;9.50;99.90
19164;DHT22;9714;51.208;4.242;2023-02-21T04:55:26;9.50;99.90
19164;DHT22;9714;51.208;4.242;2023-02-21T04:57:55;9.50;99.90
19164;DHT22;9714;51.208;4.242;2023-02-21T05:00:24;9.30;99.90
19164;DHT22;9714;51.208;4.242;2023-02-21T05:02:59;9.40;99.90
19164;DHT22;9714;51.208;4.242;2023-02-21T05:05:29;9.50;99.90
19164;DHT22;9714;51.208;4.242;2023-02-21T05:07:57;9.50;99.90
19164;DHT22;9714;51.208;4.242;2023-02-21T05:10:25;9.50;99.90
19164;DHT22;9714;51.208;4.242;2023-02-21T05:12:58;9.40;99.90
19164;DHT22;9714;51.208;4.242;2023-02-21T05:15:26;9.50;99.90
19164;DHT22;9714;51.208;4.242;2023-02-21T05:17:53;9.30;99.90
19164;DHT22;9714;51.208;4.242;2023-02-21T05:20:20;9.50;99.90
19164;DHT22;9714;51.208;4.242;2023-02-21T05:22:49;9.30;99.90
19164;DHT22;9714;51.208;4.242;2023-02-21T05:25:17;9.30;99.90
19164;DHT22;9714;51.208;4.242;2023-02-21T05:27:45;9.20;99.90
19164;DHT22;9714;51.208;4.242;2023-02-21T05:30:14;9.40;99.90
19164;DHT22;9714;51.208;4.242;2023-02-21T05:32:42;9.50;99.90
19164;DHT22;9714;51.208;4.242;2023-02-21T05:35:10;9.50;99.90
19164;DHT22;9714;51.208;4.242;2023-02-21T05:37:37;9.50;99.90
19164;DHT22;9714;51.208;4.242;2023-02-21T05:40:06;9.50;99.90
19164;DHT22;9714;51.208;4.242;2023-02-21T05:42:33;9.50;99.90
19164;DHT22;9714;51.208;4.242;2023-02-21T05:45:01;9.50;99.90
19164;DHT22;9714;51.208;4.242;2023-02-21T05:47:32;9.30;99.90
19164;DHT22;9714;51.208;4.242;2023-02-21T05:49:59;9.30;99.90
19164;DHT22;9714;51.208;4.242;2023-02-21T05:52:26;9.30;99.90
19164;DHT22;9714;51.208;4.242;2023-02-21T05:54:54;9.20;99.90
19164;DHT22;9714;51.208;4.242;2023-02-21T05:57:22;9.30;99.90
19164;DHT22;9714;51.208;4.242;2023-02-21T05:59:49;9.30;99.90
19164;DHT22;9714;51.208;4.242;2023-02-21T06:02:16;9.20;99.90
19164;DHT22;9714;51.208;4.242;2023-02-21T06:04:44;9.40;99.90
19164;DHT22;9714;51.208;4.242;2023-02-21T06:07:12;9.30;99.90
19164;DHT22;9714;51.208;4.242;2023-02-21T06:09:38;9.30;99.90
19164;DHT22;9714;51.208;4.242;2023-02-21T06:12:06;9.40;99.90
19164;DHT22;9714;51.208;4.242;2023-02-21T06:14:34;9.40;99.90
19164;DHT22;9714;51.208;4.242;2023-02-21T06:17:03;9.50;99.90
19164;DHT22;9714;51.208;4.242;2023-02-21T06:19:30;9.30;99.90
19164;DHT22;9714;51.208;4.242;2023-02-21T06:21:57;9.20;99.90
19164;DHT22;9714;51.208;4.242;2023-02-21T06:24:24;9.50;99.90
19164;DHT22;9714;51.208;4.242;2023-02-21T06:26:51;9.50;99.90
19164;DHT22;9714;51.208;4.242;2023-02-21T06:29:19;9.30;99.90
19164;DHT22;9714;51.208;4.242;2023-02-21T06:31:47;9.40;99.90
19164;DHT22;9714;51.208;4.242;2023-02-21T06:34:14;9.50;99.90
19164;DHT22;9714;51.208;4.242;2023-02-21T06:36:41;9.50;99.90
19164;DHT22;9714;51.208;4.242;2023-02-21T06:39:11;9.50;99.90
19164;DHT22;9714;51.208;4.242;2023-02-21T06:41:38;9.50;99.90
19164;DHT22;9714;51.208;4.242;2023-02-21T06:44:05;9.50;99.90
19164;DHT22;9714;51.208;4.242;2023-02-21T06:46:33;9.60;99.90
19164;DHT22;9714;51.208;4.242;2023-02-21T06:49:03;9.40;99.90
19164;DHT22;9714;51.208;4.242;2023-02-21T06:51:34;9.50;99.90
19164;DHT22;9714;51.208;4.242;2023-02-21T06:54:01;9.30;99.90
19164;DHT22;9714;51.208;4.242;2023-02-21T06:56:28;9.50;99.90
19164;DHT22;9714;51.208;4.242;2023-02-21T06:58:55;9.60;99.90
19164;DHT22;9714;51.208;4.242;2023-02-21T07:01:24;9.50;99.90
19164;DHT22;9714;51.208;4.242;2023-02-21T07:03:53;9.50;99.90
19164;DHT22;9714;51.208;4.242;2023-02-21T07:06:22;9.50;99.90
19164;DHT22;9714;51.208;4.242;2023-02-21T07:08:49;9.50;99.90
19164;DHT22;9714;51.208;4.242;2023-02-21T07:11:17;9.20;99.90
19164;DHT22;9714;51.208;4.242;2023-02-21T07:13:50;9.40;99.90
19164;DHT22;9714;51.208;4.242;2023-02-21T07:16:17;9.50;99.90
19164;DHT22;9714;51.208;4.242;2023-02-21T07:18:44;9.50;99.90
19164;DHT22;9714;51.208;4.242;2023-02-21T07:21:12;9.30;99.90
19164;DHT22;9714;51.208;4.242;2023-02-21T07:23:42;9.40;99.90
19164;DHT22;9714;51.208;4.242;2023-02-21T07:26:10;9.50;99.90
19164;DHT22;9714;51.208;4.242;2023-02-21T07:28:37;9.40;99.90
19164;DHT22;9714;51.208;4.242;2023-02-21T07:31:05;9.60;99.90
19164;DHT22;9714;51.208;4.242;2023-02-21T07:33:34;9.30;99.90
19164;DHT22;9714;51.208;4.242;2023-02-21T07:36:01;9.30;99.90
19164;DHT22;9714;51.208;4.242;2023-02-21T07:38:29;9.60;99.90
19164;DHT22;9714;51.208;4.242;2023-02-21T07:41:01;9.50;99.90
19164;DHT22;9714;51.208;4.242;2023-02-21T07:43:29;9.70;99.90
19164;DHT22;9714;51.208;4.242;2023-02-21T07:45:58;9.50;99.90
19164;DHT22;9714;51.208;4.242;2023-02-21T07:48:26;9.60;99.90
19164;DHT22;9714;51.208;4.242;2023-02-21T07:50:53;9.40;99.90
19164;DHT22;9714;51.208;4.242;2023-02-21T07:53:20;9.60;99.90
19164;DHT22;9714;51.208;4.242;2023-02-21T07:55:48;9.50;99.90
19164;DHT22;9714;51.208;4.242;2023-02-21T07:58:16;9.50;99.90
19164;DHT22;9714;51.208;4.242;2023-02-21T08:00:43;9.60;99.90
19164;DHT22;9714;51.208;4.242;2023-02-21T08:03:17;9.50;99.90
19164;DHT22;9714;51.208;4.242;2023-02-21T08:05:45;9.20;99.90
19164;DHT22;9714;51.208;4.242;2023-02-21T08:08:14;9.40;99.90
19164;DHT22;9714;51.208;4.242;2023-02-21T08:10:42;9.50;99.90
19164;DHT22;9714;51.208;4.242;2023-02-21T08:13:09;9.50;99.90
19164;DHT22;9714;51.208;4.242;2023-02-21T08:15:40;9.80;99.90
19164;DHT22;9714;51.208;4.242;2023-02-21T08:18:14;9.40;99.90
19164;DHT22;9714;51.208;4.242;2023-02-21T08:20:43;9.30;99.90
19164;DHT22;9714;51.208;4.242;2023-02-21T08:23:10;9.50;99.90
19164;DHT22;9714;51.208;4.242;2023-02-21T08:25:37;9.60;99.90
19164;DHT22;9714;51.208;4.242;2023-02-21T08:28:07;9.70;99.90
19164;DHT22;9714;51.208;4.242;2023-02-21T08:30:36;9.50;99.90
19164;DHT22;9714;51.208;4.242;2023-02-21T08:33:06;9.40;99.90
19164;DHT22;9714;51.208;4.242;2023-02-21T08:35:33;9.50;99.90
19164;DHT22;9714;51.208;4.242;2023-02-21T08:38:00;9.70;99.90
19164;DHT22;9714;51.208;4.242;2023-02-21T08:40:29;9.80;99.90
19164;DHT22;9714;51.208;4.242;2023-02-21T08:42:57;9.90;99.90
19164;DHT22;9714;51.208;4.242;2023-02-21T08:46:05;9.80;99.90
19164;DHT22;9714;51.208;4.242;2023-02-21T08:48:37;9.80;99.90
19164;DHT22;9714;51.208;4.242;2023-02-21T08:51:06;9.90;99.90
19164;DHT22;9714;51.208;4.242;2023-02-21T08:53:34;9.90;99.90
19164;DHT22;9714;51.208;4.242;2023-02-21T08:56:01;9.80;99.90
19164;DHT22;9714;51.208;4.242;2023-02-21T08:58:28;9.80;99.90
19164;DHT22;9714;51.208;4.242;2023-02-21T09:00:54;9.90;99.90
19164;DHT22;9714;51.208;4.242;2023-02-21T09:03:22;9.90;99.90
19164;DHT22;9714;51.208;4.242;2023-02-21T09:05:50;9.80;99.90
19164;DHT22;9714;51.208;4.242;2023-02-21T09:08:17;9.90;99.90
19164;DHT22;9714;51.208;4.242;2023-02-21T09:10:46;9.70;99.90
19164;DHT22;9714;51.208;4.242;2023-02-21T09:13:14;9.80;99.90
19164;DHT22;9714;51.208;4.242;2023-02-21T09:15:41;9.90;99.90
19164;DHT22;9714;51.208;4.242;2023-02-21T09:18:09;9.70;99.90
19164;DHT22;9714;51.208;4.242;2023-02-21T09:20:37;9.60;99.90
19164;DHT22;9714;51.208;4.242;2023-02-21T09:23:08;9.80;99.90
19164;DHT22;9714;51.208;4.242;2023-02-21T09:25:35;9.70;99.90
19164;DHT22;9714;51.208;4.242;2023-02-21T09:28:02;9.70;99.90
19164;DHT22;9714;51.208;4.242;2023-02-21T09:30:29;9.80;99.90
19164;DHT22;9714;51.208;4.242;2023-02-21T09:32:57;9.80;99.90
19164;DHT22;9714;51.208;4.242;2023-02-21T09:35:24;9.60;99.90
19164;DHT22;9714;51.208;4.242;2023-02-21T09:37:52;9.70;99.90
19164;DHT22;9714;51.208;4.242;2023-02-21T09:40:31;9.90;99.90
19164;DHT22;9714;51.208;4.242;2023-02-21T09:43:02;10.10;99.90
19164;DHT22;9714;51.208;4.242;2023-02-21T09:45:31;10.10;99.90
19164;DHT22;9714;51.208;4.242;2023-02-21T09:48:06;10.00;99.90
19164;DHT22;9714;51.208;4.242;2023-02-21T09:50:43;9.80;99.90
19164;DHT22;9714;51.208;4.242;2023-02-21T09:53:16;10.00;99.90
19164;DHT22;9714;51.208;4.242;2023-02-21T09:55:48;10.00;99.90
19164;DHT22;9714;51.208;4.242;2023-02-21T09:58:18;10.10;99.90
19164;DHT22;9714;51.208;4.242;2023-02-21T10:00:46;10.00;99.90
19164;DHT22;9714;51.208;4.242;2023-02-21T10:03:30;10.00;99.90
19164;DHT22;9714;51.208;4.242;2023-02-21T10:06:08;9.90;99.90
19164;DHT22;9714;51.208;4.242;2023-02-21T10:08:43;9.90;99.90
19164;DHT22;9714;51.208;4.242;2023-02-21T10:11:29;10.10;99.90
19164;DHT22;9714;51.208;4.242;2023-02-21T10:14:05;10.20;99.90
19164;DHT22;9714;51.208;4.242;2023-02-21T10:16:46;10.40;99.90
19164;DHT22;9714;51.208;4.242;2023-02-21T10:19:18;10.20;99.90
19164;DHT22;9714;51.208;4.242;2023-02-21T10:21:48;10.10;99.90
19164;DHT22;9714;51.208;4.242;2023-02-21T10:24:20;10.30;99.90
19164;DHT22;9714;51.208;4.242;2023-02-21T10:26:52;10.20;99.90
19164;DHT22;9714;51.208;4.242;2023-02-21T10:29:25;10.30;99.90
19164;DHT22;9714;51.208;4.242;2023-02-21T10:31:56;10.20;99.90
19164;DHT22;9714;51.208;4.242;2023-02-21T10:34:28;10.20;99.90
19164;DHT22;9714;51.208;4.242;2023-02-21T10:36:58;10.10;99.90
19164;DHT22;9714;51.208;4.242;2023-02-21T10:39:33;10.10;99.90
19164;DHT22;9714;51.208;4.242;2023-02-21T10:42:03;10.20;99.90
19164;DHT22;9714;51.208;4.242;2023-02-21T10:44:33;10.20;99.90
19164;DHT22;9714;51.208;4.242;2023-02-21T10:47:09;10.20;99.90
19164;DHT22;9714;51.208;4.242;2023-02-21T10:49:45;10.40;99.90
19164;DHT22;9714;51.208;4.242;2023-02-21T10:52:15;10.30;99.90
19164;DHT22;9714;51.208;4.242;2023-02-21T10:54:59;10.20;99.90
19164;DHT22;9714;51.208;4.242;2023-02-21T10:57:30;10.40;99.90
19164;DHT22;9714;51.208;4.242;2023-02-21T10:59:58;10.50;99.90
19164;DHT22;9714;51.208;4.242;2023-02-21T11:02:34;10.30;99.90
19164;DHT22;9714;51.208;4.242;2023-02-21T11:05:14;10.30;99.90
19164;DHT22;9714;51.208;4.242;2023-02-21T11:07:56;10.20;99.90
19164;DHT22;9714;51.208;4.242;2023-02-21T11:10:30;10.20;99.90
19164;DHT22;9714;51.208;4.242;2023-02-21T11:13:10;10.10;99.90
19164;DHT22;9714;51.208;4.242;2023-02-21T11:15:40;9.90;99.90
19164;DHT22;9714;51.208;4.242;2023-02-21T11:18:15;9.90;99.90
19164;DHT22;9714;51.208;4.242;2023-02-21T11:20:43;9.80;99.90
19164;DHT22;9714;51.208;4.242;2023-02-21T11:23:23;10.00;99.90
19164;DHT22;9714;51.208;4.242;2023-02-21T11:25:57;9.90;99.90
19164;DHT22;9714;51.208;4.242;2023-02-21T11:28:28;10.10;99.90
19164;DHT22;9714;51.208;4.242;2023-02-21T11:31:10;10.10;99.90
19164;DHT22;9714;51.208;4.242;2023-02-21T11:33:47;10.20;99.90
19164;DHT22;9714;51.208;4.242;2023-02-21T11:36:18;10.10;99.90
19164;DHT22;9714;51.208;4.242;2023-02-21T11:39:13;10.00;99.90
19164;DHT22;9714;51.208;4.242;2023-02-21T11:41:49;10.10;99.90
19164;DHT22;9714;51.208;4.242;2023-02-21T11:44:26;10.50;99.90
19164;DHT22;9714;51.208;4.242;2023-02-21T11:47:01;10.00;99.90
19164;DHT22;9714;51.208;4.242;2023-02-21T11:49:36;10.10;99.90
19164;DHT22;9714;51.208;4.242;2023-02-21T11:52:08;10.10;99.90
19164;DHT22;9714;51.208;4.242;2023-02-21T11:54:38;10.00;99.90
19164;DHT22;9714;51.208;4.242;2023-02-21T11:57:13;10.20;99.90
19164;DHT22;9714;51.208;4.242;2023-02-21T11:59:52;10.10;99.90
19164;DHT22;9714;51.208;4.242;2023-02-21T12:05:40;10.20;99.90
19164;DHT22;9714;51.208;4.242;2023-02-21T12:08:24;10.30;99.90
19164;DHT22;9714;51.208;4.242;2023-02-21T12:10:59;10.30;99.90
19164;DHT22;9714;51.208;4.242;2023-02-21T12:13:39;10.40;99.90
19164;DHT22;9714;51.208;4.242;2023-02-21T12:16:19;10.30;99.90
19164;DHT22;9714;51.208;4.242;2023-02-21T12:19:00;10.10;99.90
19164;DHT22;9714;51.208;4.242;2023-02-21T12:21:51;10.10;99.90
19164;DHT22;9714;51.208;4.242;2023-02-21T12:24:34;10.30;99.90
19164;DHT22;9714;51.208;4.242;2023-02-21T12:27:14;10.40;99.90
19164;DHT22;9714;51.208;4.242;2023-02-21T12:30:03;10.30;99.90
19164;DHT22;9714;51.208;4.242;2023-02-21T12:32:48;10.50;99.90
19164;DHT22;9714;51.208;4.242;2023-02-21T12:38:28;10.30;99.90
19164;DHT22;9714;51.208;4.242;2023-02-21T12:41:11;10.50;99.90
19164;DHT22;9714;51.208;4.242;2023-02-21T12:43:52;10.50;99.90
19164;DHT22;9714;51.208;4.242;2023-02-21T12:46:27;10.50;99.90
19164;DHT22;9714;51.208;4.242;2023-02-21T12:49:03;10.50;99.90
19164;DHT22;9714;51.208;4.242;2023-02-21T12:51:38;10.50;99.90
19164;DHT22;9714;51.208;4.242;2023-02-21T12:54:11;10.50;99.90
19164;DHT22;9714;51.208;4.242;2023-02-21T12:56:43;10.60;99.90
19164;DHT22;9714;51.208;4.242;2023-02-21T12:59:19;10.40;99.90
19164;DHT22;9714;51.208;4.242;2023-02-21T13:01:48;10.30;99.90
19164;DHT22;9714;51.208;4.242;2023-02-21T13:04:26;10.20;99.90
19164;DHT22;9714;51.208;4.242;2023-02-21T13:07:02;10.40;99.90
19164;DHT22;9714;51.208;4.242;2023-02-21T13:09:35;10.80;99.90
19164;DHT22;9714;51.208;4.242;2023-02-21T13:12:07;10.80;99.90
19164;DHT22;9714;51.208;4.242;2023-02-21T13:14:40;10.90;99.90
19164;DHT22;9714;51.208;4.242;2023-02-21T13:17:09;10.90;99.90
19164;DHT22;9714;51.208;4.242;2023-02-21T13:19:41;10.80;99.90
19164;DHT22;9714;51.208;4.242;2023-02-21T13:22:27;10.80;99.90
19164;DHT22;9714;51.208;4.242;2023-02-21T13:25:04;10.90;99.90
19164;DHT22;9714;51.208;4.242;2023-02-21T13:27:55;10.90;99.90
19164;DHT22;9714;51.208;4.242;2023-02-21T13:30:33;11.00;99.90
19164;DHT22;9714;51.208;4.242;2023-02-21T13:33:05;11.20;99.90
19164;DHT22;9714;51.208;4.242;2023-02-21T13:35:36;11.10;99.90
19164;DHT22;9714;51.208;4.242;2023-02-21T13:38:07;10.90;99.90
19164;DHT22;9714;51.208;4.242;2023-02-21T13:40:37;11.00;99.90
19164;DHT22;9714;51.208;4.242;2023-02-21T13:43:12;11.20;99.90
19164;DHT22;9714;51.208;4.242;2023-02-21T13:45:41;11.20;99.90
19164;DHT22;9714;51.208;4.242;2023-02-21T13:51:04;11.20;99.90
19164;DHT22;9714;51.208;4.242;2023-02-21T13:54:07;11.10;99.90
19164;DHT22;9714;51.208;4.242;2023-02-21T13:56:43;11.10;99.90
19164;DHT22;9714;51.208;4.242;2023-02-21T13:59:42;11.40;99.90
19164;DHT22;9714;51.208;4.242;2023-02-21T14:02:22;11.40;99.90
19164;DHT22;9714;51.208;4.242;2023-02-21T14:05:03;11.50;99.90
19164;DHT22;9714;51.208;4.242;2023-02-21T14:07:56;11.40;99.90
19164;DHT22;9714;51.208;4.242;2023-02-21T14:10:40;11.20;99.90
19164;DHT22;9714;51.208;4.242;2023-02-21T14:13:32;11.20;99.90
19164;DHT22;9714;51.208;4.242;2023-02-21T14:16:17;10.70;99.90
19164;DHT22;9714;51.208;4.242;2023-02-21T14:18:51;10.90;99.90
19164;DHT22;9714;51.208;4.242;2023-02-21T14:21:28;11.20;99.90
19164;DHT22;9714;51.208;4.242;2023-02-21T14:24:01;11.00;99.90
19164;DHT22;9714;51.208;4.242;2023-02-21T14:26:48;10.90;99.90
19164;DHT22;9714;51.208;4.242;2023-02-21T14:29:34;10.90;99.90
19164;DHT22;9714;51.208;4.242;2023-02-21T14:35:22;11.00;99.90
19164;DHT22;9714;51.208;4.242;2023-02-21T14:37:59;11.20;99.90
19164;DHT22;9714;51.208;4.242;2023-02-21T14:40:35;11.20;99.90
19164;DHT22;9714;51.208;4.242;2023-02-21T14:43:31;11.00;99.90
19164;DHT22;9714;51.208;4.242;2023-02-21T14:46:23;11.40;99.90
19164;DHT22;9714;51.208;4.242;2023-02-21T14:49:35;11.60;99.90
19164;DHT22;9714;51.208;4.242;2023-02-21T14:52:36;11.30;99.90
19164;DHT22;9714;51.208;4.242;2023-02-21T14:55:25;11.10;99.90
19164;DHT22;9714;51.208;4.242;2023-02-21T15:01:38;11.20;99.90
19164;DHT22;9714;51.208;4.242;2023-02-21T15:10:39;11.40;99.90
19164;DHT22;9714;51.208;4.242;2023-02-21T15:13:23;11.40;99.90
19164;DHT22;9714;51.208;4.242;2023-02-21T15:19:23;11.00;99.90
19164;DHT22;9714;51.208;4.242;2023-02-21T15:22:20;11.20;99.90
19164;DHT22;9714;51.208;4.242;2023-02-21T15:25:12;11.20;99.90
19164;DHT22;9714;51.208;4.242;2023-02-21T15:27:56;11.10;99.90
19164;DHT22;9714;51.208;4.242;2023-02-21T15:30:28;11.10;99.90
19164;DHT22;9714;51.208;4.242;2023-02-21T15:33:04;11.00;99.90
19164;DHT22;9714;51.208;4.242;2023-02-21T15:42:18;10.70;99.90
19164;DHT22;9714;51.208;4.242;2023-02-21T15:44:48;10.20;99.90
19164;DHT22;9714;51.208;4.242;2023-02-21T15:47:23;10.40;99.90
19164;DHT22;9714;51.208;4.242;2023-02-21T15:49:58;10.50;99.90
19164;DHT22;9714;51.208;4.242;2023-02-21T15:52:33;10.50;99.90
19164;DHT22;9714;51.208;4.242;2023-02-21T15:55:26;10.50;99.90
19164;DHT22;9714;51.208;4.242;2023-02-21T15:58:01;10.40;99.90
19164;DHT22;9714;51.208;4.242;2023-02-21T16:00:30;10.80;99.90
19164;DHT22;9714;51.208;4.242;2023-02-21T16:03:31;11.00;99.90
19164;DHT22;9714;51.208;4.242;2023-02-21T16:06:21;10.90;99.90
19164;DHT22;9714;51.208;4.242;2023-02-21T16:09:03;10.50;99.90
19164;DHT22;9714;51.208;4.242;2023-02-21T16:11:42;10.20;99.90
19164;DHT22;9714;51.208;4.242;2023-02-21T16:14:26;10.10;99.90
19164;DHT22;9714;51.208;4.242;2023-02-21T16:17:15;9.90;99.90
19164;DHT22;9714;51.208;4.242;2023-02-21T16:19:48;9.90;99.90
19164;DHT22;9714;51.208;4.242;2023-02-21T16:22:30;10.00;99.90
19164;DHT22;9714;51.208;4.242;2023-02-21T16:25:18;10.00;99.90
19164;DHT22;9714;51.208;4.242;2023-02-21T16:27:49;10.10;99.90
19164;DHT22;9714;51.208;4.242;2023-02-21T16:30:22;10.00;99.90
19164;DHT22;9714;51.208;4.242;2023-02-21T16:32:51;9.80;99.90
19164;DHT22;9714;51.208;4.242;2023-02-21T16:35:23;9.70;99.90
19164;DHT22;9714;51.208;4.242;2023-02-21T16:37:53;9.50;99.90
19164;DHT22;9714;51.208;4.242;2023-02-21T16:40:25;9.50;99.90
19164;DHT22;9714;51.208;4.242;2023-02-21T16:42:55;9.80;99.90
19164;DHT22;9714;51.208;4.242;2023-02-21T16:45:23;9.70;99.90
19164;DHT22;9714;51.208;4.242;2023-02-21T16:47:55;9.70;99.90
19164;DHT22;9714;51.208;4.242;2023-02-21T16:50:27;9.50;99.90
19164;DHT22;9714;51.208;4.242;2023-02-21T16:53:01;9.40;99.90
19164;DHT22;9714;51.208;4.242;2023-02-21T16:55:29;9.40;99.90
19164;DHT22;9714;51.208;4.242;2023-02-21T16:57:59;9.30;99.90
19164;DHT22;9714;51.208;4.242;2023-02-21T17:00:31;9.40;99.90
19164;DHT22;9714;51.208;4.242;2023-02-21T17:02:59;9.50;99.90
19164;DHT22;9714;51.208;4.242;2023-02-21T17:05:28;9.80;99.90
19164;DHT22;9714;51.208;4.242;2023-02-21T17:08:02;9.80;99.90
19164;DHT22;9714;51.208;4.242;2023-02-21T17:10:32;9.90;99.90
19164;DHT22;9714;51.208;4.242;2023-02-21T17:13:01;9.90;99.90
19164;DHT22;9714;51.208;4.242;2023-02-21T17:15:29;9.70;99.90
19164;DHT22;9714;51.208;4.242;2023-02-21T17:17:57;9.80;99.90
19164;DHT22;9714;51.208;4.242;2023-02-21T17:20:24;9.80;99.90
19164;DHT22;9714;51.208;4.242;2023-02-21T17:22:54;9.80;99.90
19164;DHT22;9714;51.208;4.242;2023-02-21T17:25:23;9.80;99.90
19164;DHT22;9714;51.208;4.242;2023-02-21T17:27:50;9.70;99.90
19164;DHT22;9714;51.208;4.242;2023-02-21T17:30:20;9.80;99.90
19164;DHT22;9714;51.208;4.242;2023-02-21T17:32:49;9.70;99.90